Time;durP1;ratioP1;P1;durP2;ratioP2;P2;SDS_P1;SDS_P2;PMS_P1;PMS_P2;Temp;Humidity;BMP_temperature;BMP_pressure;BME280_temperature;BME280_humidity;BME280_pressure;Samples;Min_cycle;Max_cycle;Signal;HPM_P1;HPM_P2
2023/03/12 00:00:40;;;;;;;30.42;11.93;;;-2.00;99.90;;;;;;5024480;28;20049;-69
2023/03/12 00:03:06;;;;;;;31.08;12.35;;;-1.80;99.90;;;;;;5010171;28;20064;-65
2023/03/12 00:05:32;;;;;;;26.30;10.60;;;-2.20;99.90;;;;;;5010366;28;20431;-69
2023/03/12 00:07:58;;;;;;;26.55;10.60;;;-1.80;99.90;;;;;;5010377;28;20099;-70
2023/03/12 00:10:28;;;;;;;37.17;11.27;;;-2.00;99.90;;;;;;5009413;28;20030;-69
2023/03/12 00:12:54;;;;;;;29.27;11.45;;;-2.10;99.90;;;;;;5010322;28;20022;-69
2023/03/12 00:15:20;;;;;;;27.20;10.73;;;-1.70;99.90;;;;;;5008750;28;20037;-69
2023/03/12 00:17:46;;;;;;;31.92;11.80;;;-1.80;99.90;;;;;;5010130;28;20029;-68
2023/03/12 00:20:12;;;;;;;27.13;10.13;;;-1.90;99.90;;;;;;5009527;28;20038;-70
2023/03/12 00:22:38;;;;;;;32.55;10.07;;;-2.00;99.90;;;;;;5010186;28;20065;-69
2023/03/12 00:25:07;;;;;;;26.88;10.20;;;-2.30;99.90;;;;;;4992348;28;20029;-69
2023/03/12 00:27:33;;;;;;;30.65;10.60;;;-2.00;99.90;;;;;;5009818;28;20080;-69
2023/03/12 00:29:58;;;;;;;28.15;10.20;;;-2.00;99.90;;;;;;5009286;28;20037;-70
2023/03/12 00:32:24;;;;;;;29.63;9.85;;;-2.10;99.90;;;;;;5008951;28;20022;-68
2023/03/12 00:34:51;;;;;;;26.25;10.35;;;-2.50;99.90;;;;;;5009956;28;20794;-68
2023/03/12 00:37:17;;;;;;;24.48;10.23;;;-2.00;99.90;;;;;;5008848;28;20032;-69
2023/03/12 00:39:42;;;;;;;23.77;9.60;;;-2.30;99.90;;;;;;5009618;28;20522;-69
2023/03/12 00:42:08;;;;;;;22.98;9.40;;;-2.40;99.90;;;;;;4991893;28;20068;-66
2023/03/12 00:44:34;;;;;;;25.55;10.40;;;-2.10;99.90;;;;;;5004471;28;20033;-68
2023/03/12 00:46:59;;;;;;;23.65;9.60;;;-2.20;99.90;;;;;;5008742;28;20397;-68
2023/03/12 00:49:25;;;;;;;23.98;9.63;;;-2.20;99.90;;;;;;5010238;28;20066;-67
2023/03/12 00:51:51;;;;;;;25.77;9.88;;;-2.50;99.90;;;;;;5023045;28;20096;-68
2023/03/12 00:54:16;;;;;;;27.40;11.13;;;-2.50;99.90;;;;;;5019655;28;20042;-68
2023/03/12 00:56:42;;;;;;;28.40;10.73;;;-2.50;99.90;;;;;;5009263;28;20084;-68
2023/03/12 00:59:08;;;;;;;25.75;10.48;;;-2.40;99.90;;;;;;5020442;28;20029;-67
2023/03/12 01:01:33;;;;;;;25.15;9.35;;;-2.30;99.90;;;;;;4989329;28;20026;-68
2023/03/12 01:03:59;;;;;;;23.77;10.23;;;-2.20;99.90;;;;;;5029172;28;20715;-68
2023/03/12 01:06:25;;;;;;;25.40;11.15;;;-2.50;99.90;;;;;;5015013;28;20085;-68
2023/03/12 01:08:51;;;;;;;31.50;10.82;;;-2.20;99.90;;;;;;5009419;28;20036;-68
2023/03/12 01:11:19;;;;;;;25.42;9.65;;;-2.50;99.90;;;;;;5018516;28;20135;-68
2023/03/12 01:13:45;;;;;;;24.00;10.07;;;-2.30;99.90;;;;;;5010586;28;20522;-68
2023/03/12 01:16:11;;;;;;;24.10;10.05;;;-2.50;99.90;;;;;;5010847;28;20136;-66
2023/03/12 01:18:36;;;;;;;25.10;9.95;;;-2.50;99.90;;;;;;5021561;28;20104;-69
2023/03/12 01:21:02;;;;;;;21.23;9.13;;;-2.60;99.90;;;;;;5010236;28;20038;-68
2023/03/12 01:23:27;;;;;;;22.52;9.23;;;-2.30;99.90;;;;;;5028283;28;20425;-67
2023/03/12 01:25:54;;;;;;;34.33;13.77;;;-2.30;99.90;;;;;;5017767;28;20036;-68
2023/03/12 01:28:21;;;;;;;44.30;14.55;;;-2.50;99.90;;;;;;5008428;28;20164;-68
2023/03/12 01:30:47;;;;;;;32.65;13.20;;;-2.20;99.90;;;;;;5018853;28;20034;-68
2023/03/12 01:33:12;;;;;;;40.13;13.70;;;-2.30;99.90;;;;;;5002547;28;20036;-66
2023/03/12 01:35:39;;;;;;;34.35;13.55;;;-2.60;99.90;;;;;;5006488;28;20025;-68
2023/03/12 01:38:11;;;;;;;34.80;13.57;;;-2.30;99.90;;;;;;5003203;28;20399;-68
2023/03/12 01:40:37;;;;;;;37.45;13.65;;;-2.50;99.90;;;;;;4988807;28;20030;-67
2023/03/12 01:43:32;;;;;;;37.83;14.30;;;-2.60;99.90;;;;;;5012050;28;20079;-68
2023/03/12 01:46:23;;;;;;;29.27;12.52;;;-2.80;99.90;;;;;;5028676;28;20401;-68
2023/03/12 01:49:11;;;;;;;35.38;13.35;;;-2.70;99.90;;;;;;5003181;28;20096;-68
2023/03/12 01:51:53;;;;;;;29.95;10.73;;;-2.80;99.90;;;;;;5006112;28;20030;-68
2023/03/12 01:54:39;;;;;;;27.80;10.45;;;-2.90;99.90;;;;;;4979316;28;20034;-68
2023/03/12 01:57:09;;;;;;;21.90;9.00;;;-2.40;99.90;;;;;;5012385;28;20038;-68
2023/03/12 01:59:41;;;;;;;26.58;9.80;;;-2.50;99.90;;;;;;4993904;28;20102;-68
2023/03/12 02:02:08;;;;;;;22.45;9.00;;;-2.80;99.90;;;;;;5006846;28;20053;-68
2023/03/12 02:04:35;;;;;;;23.17;9.27;;;-2.70;99.90;;;;;;4992294;28;20053;-68
2023/03/12 02:07:07;;;;;;;27.08;9.75;;;-2.60;99.90;;;;;;5020077;28;20096;-68
2023/03/12 02:09:39;;;;;;;31.10;9.75;;;-2.90;99.90;;;;;;5031588;28;20100;-67
2023/03/12 02:12:05;;;;;;;25.63;9.65;;;-2.90;99.90;;;;;;5014068;28;20021;-66
2023/03/12 02:14:31;;;;;;;26.73;9.80;;;-2.80;99.90;;;;;;5006353;28;20056;-68
2023/03/12 02:16:57;;;;;;;25.20;9.02;;;-2.50;99.90;;;;;;4996781;28;20034;-68
2023/03/12 02:19:54;;;;;;;22.58;9.20;;;-2.50;99.90;;;;;;5007032;28;20061;-68
2023/03/12 02:22:21;;;;;;;18.95;8.45;;;-2.80;99.90;;;;;;5012629;28;20026;-68
2023/03/12 02:25:02;;;;;;;22.13;8.18;;;-2.40;99.90;;;;;;4994771;28;20034;-68
2023/03/12 02:27:32;;;;;;;19.38;8.05;;;-2.50;99.90;;;;;;5016901;28;20100;-68
2023/03/12 02:29:59;;;;;;;21.92;7.68;;;-2.40;99.90;;;;;;4992894;28;20034;-68
2023/03/12 02:32:34;;;;;;;20.42;7.65;;;-2.30;99.90;;;;;;5011293;28;20084;-68
2023/03/12 02:35:02;;;;;;;19.60;8.25;;;-2.40;99.90;;;;;;5019096;28;20042;-68
2023/03/12 02:37:27;;;;;;;25.95;8.27;;;-2.30;99.90;;;;;;5011120;28;20487;-68
2023/03/12 02:40:17;;;;;;;20.05;8.23;;;-2.70;99.90;;;;;;5022095;28;20025;-68
2023/03/12 02:42:44;;;;;;;17.67;7.77;;;-2.40;99.90;;;;;;5030446;28;20072;-67
2023/03/12 02:45:10;;;;;;;20.05;7.32;;;-2.50;99.90;;;;;;5027575;28;20311;-67
2023/03/12 02:47:35;;;;;;;19.92;8.82;;;-2.30;99.90;;;;;;5030805;28;20305;-68
2023/03/12 02:50:01;;;;;;;28.35;8.07;;;-2.40;99.90;;;;;;5022132;28;20395;-66
2023/03/12 02:52:27;;;;;;;26.38;8.35;;;-2.20;99.90;;;;;;5010743;28;20026;-68
2023/03/12 02:54:52;;;;;;;19.40;7.78;;;-2.20;99.90;;;;;;5012111;28;20402;-68
2023/03/12 02:57:18;;;;;;;22.95;8.05;;;-2.60;99.90;;;;;;5030851;28;20428;-65
2023/03/12 02:59:43;;;;;;;18.50;7.80;;;-2.40;99.90;;;;;;5028875;28;20029;-68
2023/03/12 03:02:11;;;;;;;19.98;7.93;;;-2.50;99.90;;;;;;5029859;28;20483;-68
2023/03/12 03:04:37;;;;;;;23.40;8.93;;;-2.20;99.90;;;;;;4999141;28;20109;-68
2023/03/12 03:07:02;;;;;;;20.55;8.55;;;-2.30;99.90;;;;;;5013373;28;20501;-68
2023/03/12 03:09:28;;;;;;;19.45;8.73;;;-2.10;99.90;;;;;;5010678;28;20034;-68
2023/03/12 03:11:54;;;;;;;22.27;8.85;;;-2.20;99.90;;;;;;5003640;28;20059;-68
2023/03/12 03:14:19;;;;;;;24.55;9.45;;;-2.40;99.90;;;;;;4973674;28;20069;-65
2023/03/12 03:16:45;;;;;;;20.52;8.13;;;-2.00;99.90;;;;;;5007486;28;20041;-68
2023/03/12 03:19:10;;;;;;;22.45;8.45;;;-2.20;99.90;;;;;;5022945;28;20120;-68
2023/03/12 03:21:36;;;;;;;22.08;8.52;;;-2.10;99.90;;;;;;5009159;28;20046;-68
2023/03/12 03:24:02;;;;;;;20.25;8.05;;;-2.00;99.90;;;;;;5014930;28;20040;-68
2023/03/12 03:26:28;;;;;;;23.67;8.50;;;-2.40;99.90;;;;;;5012290;28;20025;-68
2023/03/12 03:28:54;;;;;;;19.83;8.20;;;-2.00;99.90;;;;;;5027093;28;20041;-68
2023/03/12 03:31:20;;;;;;;18.63;8.32;;;-2.20;99.90;;;;;;5006953;28;20072;-65
2023/03/12 03:33:46;;;;;;;19.73;8.23;;;-2.50;99.90;;;;;;5013330;28;20099;-68
2023/03/12 03:36:15;;;;;;;23.67;8.52;;;-2.20;99.90;;;;;;5013203;28;20112;-68
2023/03/12 03:38:45;;;;;;;21.63;8.73;;;-2.40;99.90;;;;;;5010805;28;20026;-67
2023/03/12 03:41:11;;;;;;;19.83;8.38;;;-2.30;99.90;;;;;;5009154;28;20776;-67
2023/03/12 03:43:37;;;;;;;23.08;9.10;;;-2.30;99.90;;;;;;5003595;28;20045;-68
2023/03/12 03:46:04;;;;;;;18.73;8.00;;;-2.40;99.90;;;;;;4991240;28;20154;-68
2023/03/12 03:48:30;;;;;;;23.13;9.45;;;-2.30;99.90;;;;;;5005606;28;20030;-67
2023/03/12 03:51:01;;;;;;;23.77;9.52;;;-2.10;99.90;;;;;;5012727;28;20088;-68
2023/03/12 03:53:26;;;;;;;21.73;9.27;;;-2.10;99.90;;;;;;5020293;28;20029;-68
2023/03/12 03:55:52;;;;;;;21.23;8.85;;;-2.30;99.90;;;;;;5025804;28;20426;-68
2023/03/12 03:58:17;;;;;;;24.40;8.95;;;-2.40;99.90;;;;;;5017738;28;20022;-68
2023/03/12 04:00:44;;;;;;;24.77;10.07;;;-2.10;99.90;;;;;;4989531;28;20057;-67
2023/03/12 04:03:10;;;;;;;22.77;9.60;;;-2.10;99.90;;;;;;5013293;28;20488;-68
2023/03/12 04:05:36;;;;;;;26.50;9.05;;;-2.00;99.90;;;;;;5029507;28;20033;-68
2023/03/12 04:08:02;;;;;;;20.75;8.85;;;-2.30;99.90;;;;;;5029078;28;20432;-68
2023/03/12 04:10:28;;;;;;;25.73;9.55;;;-2.00;99.90;;;;;;5018293;28;20065;-68
2023/03/12 04:12:54;;;;;;;28.75;9.85;;;-2.20;99.90;;;;;;5009556;28;20084;-68
2023/03/12 04:15:20;;;;;;;21.25;8.55;;;-2.30;99.90;;;;;;4997856;28;20120;-65
2023/03/12 04:17:46;;;;;;;20.33;8.68;;;-2.10;99.90;;;;;;5008452;28;20037;-68
2023/03/12 04:20:12;;;;;;;23.42;9.65;;;-2.50;99.90;;;;;;5010101;28;20038;-68
2023/03/12 04:22:38;;;;;;;18.95;8.38;;;-2.10;99.90;;;;;;5008781;28;20080;-68
2023/03/12 04:25:06;;;;;;;22.98;9.27;;;-2.10;99.90;;;;;;5008621;28;20036;-68
2023/03/12 04:27:32;;;;;;;22.70;9.20;;;-2.40;99.90;;;;;;5024678;28;20413;-68
2023/03/12 04:29:57;;;;;;;25.20;9.50;;;-2.40;99.90;;;;;;5019323;28;20108;-68
2023/03/12 04:32:23;;;;;;;22.55;8.68;;;-2.20;99.90;;;;;;5011209;28;20501;-65
2023/03/12 04:34:49;;;;;;;23.17;9.18;;;-2.50;99.90;;;;;;5027626;28;20401;-69
2023/03/12 04:37:14;;;;;;;21.35;9.10;;;-2.70;99.90;;;;;;5028676;28;20449;-68
2023/03/12 04:39:41;;;;;;;26.70;9.50;;;-2.40;99.90;;;;;;5019657;28;20026;-67
2023/03/12 04:42:08;;;;;;;24.38;9.98;;;-2.50;99.90;;;;;;5013636;28;20037;-68
2023/03/12 04:44:34;;;;;;;23.40;10.50;;;-2.20;99.90;;;;;;5021869;28;20474;-68
2023/03/12 04:46:59;;;;;;;25.38;9.98;;;-2.40;99.90;;;;;;5008444;28;20030;-68
2023/03/12 04:49:25;;;;;;;26.13;10.40;;;-2.20;99.90;;;;;;5015633;28;20112;-65
2023/03/12 04:51:51;;;;;;;26.15;10.35;;;-2.50;99.90;;;;;;5009367;28;20065;-68
2023/03/12 04:54:16;;;;;;;24.08;10.75;;;-2.50;99.90;;;;;;5016355;28;20532;-68
2023/03/12 04:56:42;;;;;;;25.25;10.95;;;-2.20;99.90;;;;;;5012849;28;20076;-68
2023/03/12 04:59:08;;;;;;;27.02;10.55;;;-2.20;99.90;;;;;;5009553;28;20476;-68
2023/03/12 05:01:35;;;;;;;24.85;10.20;;;-2.00;99.90;;;;;;5008136;28;20614;-68
2023/03/12 05:04:01;;;;;;;25.48;10.27;;;-2.10;99.90;;;;;;5009917;28;20041;-69
2023/03/12 05:06:27;;;;;;;23.58;10.07;;;-2.10;99.90;;;;;;5028252;28;20021;-65
2023/03/12 05:08:53;;;;;;;24.38;9.93;;;-1.80;99.90;;;;;;5015651;28;20539;-68
2023/03/12 05:11:19;;;;;;;29.48;10.40;;;-1.80;99.90;;;;;;5003150;28;20038;-68
2023/03/12 05:13:45;;;;;;;26.08;10.48;;;-1.80;99.90;;;;;;4990448;28;20088;-69
2023/03/12 05:16:13;;;;;;;25.60;9.93;;;-2.20;99.90;;;;;;5008935;28;20665;-68
2023/03/12 05:18:38;;;;;;;29.15;10.45;;;-1.90;99.90;;;;;;5015499;28;20057;-68
2023/03/12 05:21:13;;;;;;;24.40;9.93;;;-2.20;99.90;;;;;;4990843;28;20457;-68
2023/03/12 05:23:41;;;;;;;27.50;10.65;;;-2.00;99.90;;;;;;5010309;28;20414;-68
2023/03/12 05:26:14;;;;;;;28.35;10.00;;;-2.10;99.90;;;;;;5013415;28;20466;-68
2023/03/12 05:28:40;;;;;;;27.83;10.00;;;-2.00;99.90;;;;;;5021560;28;20076;-68
2023/03/12 05:31:09;;;;;;;27.10;10.60;;;-1.90;99.90;;;;;;5026390;28;20493;-68
2023/03/12 05:33:35;;;;;;;23.17;10.38;;;-1.90;99.90;;;;;;5027334;28;20041;-68
2023/03/12 05:36:01;;;;;;;25.63;9.52;;;-1.90;99.90;;;;;;4996006;28;20038;-67
2023/03/12 05:38:27;;;;;;;28.33;10.85;;;-2.10;99.90;;;;;;5015813;28;20401;-65
2023/03/12 05:40:58;;;;;;;25.95;9.68;;;-1.80;99.90;;;;;;5026424;28;20421;-68
2023/03/12 05:43:24;;;;;;;26.75;10.50;;;-1.90;99.90;;;;;;5028644;28;20084;-67
2023/03/12 05:45:50;;;;;;;22.48;10.10;;;-1.90;99.90;;;;;;5026054;28;20398;-68
2023/03/12 05:48:15;;;;;;;25.65;9.93;;;-2.10;99.90;;;;;;5019773;28;20114;-67
2023/03/12 05:50:41;;;;;;;29.20;10.52;;;-1.70;99.90;;;;;;5007727;28;20030;-68
2023/03/12 05:53:08;;;;;;;22.33;10.88;;;-1.70;99.90;;;;;;5007730;28;20073;-68
2023/03/12 05:55:38;;;;;;;28.95;11.88;;;-1.60;99.90;;;;;;5006262;28;20385;-67
2023/03/12 05:58:05;;;;;;;26.13;11.80;;;-1.60;99.90;;;;;;5013318;28;20039;-67
2023/03/12 06:00:34;;;;;;;27.60;12.00;;;-1.50;99.90;;;;;;5017944;28;20800;-68
2023/03/12 06:03:00;;;;;;;25.10;10.55;;;-1.90;99.90;;;;;;4996668;28;20069;-68
2023/03/12 06:05:25;;;;;;;23.85;10.05;;;-1.70;99.90;;;;;;5004282;28;20427;-68
2023/03/12 06:07:51;;;;;;;25.65;10.48;;;-1.60;99.90;;;;;;5005589;28;20029;-68
2023/03/12 06:10:18;;;;;;;25.85;10.60;;;-1.50;99.90;;;;;;5009144;28;21693;-68
2023/03/12 06:12:44;;;;;;;26.92;10.52;;;-1.60;99.90;;;;;;5005814;28;20469;-68
2023/03/12 06:15:09;;;;;;;27.48;10.68;;;-1.70;99.90;;;;;;5007267;28;20072;-67
2023/03/12 06:17:35;;;;;;;26.20;10.50;;;-1.50;99.90;;;;;;5019970;28;20042;-68
2023/03/12 06:20:01;;;;;;;32.60;11.55;;;-1.50;99.90;;;;;;4999524;28;20056;-68
2023/03/12 06:22:28;;;;;;;29.40;10.75;;;-1.20;99.90;;;;;;5021027;28;20060;-67
2023/03/12 06:24:53;;;;;;;31.52;12.00;;;-1.40;99.90;;;;;;5019510;28;20474;-68
2023/03/12 06:27:19;;;;;;;25.48;10.68;;;-1.20;99.90;;;;;;5007432;28;20032;-69
2023/03/12 06:29:46;;;;;;;24.88;10.38;;;-1.30;99.90;;;;;;5007683;28;20054;-68
2023/03/12 06:32:11;;;;;;;24.63;10.52;;;-1.40;99.90;;;;;;5007297;28;20177;-68
2023/03/12 06:34:37;;;;;;;28.30;11.80;;;-1.50;99.90;;;;;;5007352;28;20030;-68
2023/03/12 06:37:03;;;;;;;24.92;10.93;;;-1.30;99.90;;;;;;5012286;28;20026;-68
2023/03/12 06:39:28;;;;;;;24.20;10.93;;;-1.40;99.90;;;;;;5011336;28;20029;-65
2023/03/12 06:41:55;;;;;;;31.48;11.45;;;-1.30;99.90;;;;;;5005713;28;20101;-68
2023/03/12 06:44:20;;;;;;;41.38;17.98;;;-1.10;99.90;;;;;;5010705;28;20049;-68
2023/03/12 06:46:46;;;;;;;42.50;18.65;;;-0.90;99.90;;;;;;5019041;28;20030;-68
2023/03/12 06:49:12;;;;;;;39.78;15.77;;;-0.90;99.90;;;;;;5019160;28;20045;-67
2023/03/12 06:51:37;;;;;;;42.35;16.92;;;-0.80;99.90;;;;;;5019367;28;20033;-68
2023/03/12 06:54:03;;;;;;;29.27;13.70;;;-0.70;99.90;;;;;;5014721;28;20053;-68
2023/03/12 06:56:30;;;;;;;35.13;14.65;;;-0.80;99.90;;;;;;5010382;28;20117;-68
2023/03/12 06:58:55;;;;;;;33.28;13.70;;;-0.90;99.90;;;;;;4997254;28;20038;-67
2023/03/12 07:01:21;;;;;;;29.63;12.27;;;-0.50;99.90;;;;;;5015295;28;20040;-68
2023/03/12 07:03:47;;;;;;;29.33;13.13;;;-0.80;99.90;;;;;;5018818;28;20088;-68
2023/03/12 07:06:18;;;;;;;27.00;12.63;;;-0.80;99.90;;;;;;5014159;28;20037;-68
2023/03/12 07:08:44;;;;;;;35.97;14.05;;;-0.80;99.90;;;;;;5010485;28;20089;-68
2023/03/12 07:11:10;;;;;;;32.75;13.65;;;-0.70;99.90;;;;;;5007469;28;20155;-68
2023/03/12 07:13:36;;;;;;;33.20;13.35;;;-0.70;99.90;;;;;;5008171;28;20026;-68
2023/03/12 07:16:02;;;;;;;28.17;13.00;;;-0.50;99.90;;;;;;5008957;28;20033;-69
2023/03/12 07:18:28;;;;;;;33.78;13.85;;;-0.70;99.90;;;;;;5004334;28;20029;-69
2023/03/12 07:20:54;;;;;;;29.27;13.02;;;-0.70;99.90;;;;;;5001244;28;20026;-69
2023/03/12 07:23:20;;;;;;;29.55;13.27;;;-0.30;99.90;;;;;;5009913;28;20488;-68
2023/03/12 07:25:46;;;;;;;35.67;15.57;;;-0.20;99.90;;;;;;5013636;28;20041;-68
2023/03/12 07:28:13;;;;;;;37.42;14.40;;;-0.40;99.90;;;;;;5005313;28;20038;-68
2023/03/12 07:30:39;;;;;;;30.90;13.50;;;-0.30;99.90;;;;;;4985617;28;20034;-67
2023/03/12 07:33:10;;;;;;;32.22;13.63;;;-0.30;99.90;;;;;;5010170;28;20501;-68
2023/03/12 07:35:40;;;;;;;31.23;13.23;;;-0.50;99.90;;;;;;5011140;28;20046;-66
2023/03/12 07:38:06;;;;;;;27.25;11.77;;;-0.40;99.90;;;;;;5009120;28;20041;-68
2023/03/12 07:40:32;;;;;;;27.48;12.40;;;-0.30;99.90;;;;;;5006869;28;20037;-66
2023/03/12 07:42:58;;;;;;;27.92;13.15;;;-0.30;99.90;;;;;;5010571;28;20037;-68
2023/03/12 07:45:24;;;;;;;28.10;11.80;;;-0.30;99.90;;;;;;5010654;28;20112;-68
2023/03/12 07:47:49;;;;;;;25.08;10.23;;;-0.40;99.90;;;;;;5006941;28;20378;-69
2023/03/12 07:50:16;;;;;;;26.00;11.23;;;-0.20;99.90;;;;;;4991852;28;20065;-69
2023/03/12 07:52:42;;;;;;;24.00;10.55;;;-0.10;99.90;;;;;;5004218;28;20482;-68
2023/03/12 07:55:08;;;;;;;27.70;11.70;;;-0.20;99.90;;;;;;5008546;28;20044;-66
2023/03/12 07:57:34;;;;;;;25.13;12.23;;;-0.10;99.90;;;;;;5009332;28;20119;-66
2023/03/12 08:00:00;;;;;;;29.48;12.40;;;0.10;99.90;;;;;;5008631;28;20065;-68
2023/03/12 08:02:26;;;;;;;30.77;12.88;;;0.00;99.90;;;;;;5017802;28;20033;-68
2023/03/12 08:04:51;;;;;;;30.63;13.20;;;0.00;99.90;;;;;;5015509;28;20160;-68
2023/03/12 08:07:17;;;;;;;34.60;14.60;;;0.40;99.90;;;;;;5008017;28;20088;-69
2023/03/12 08:09:43;;;;;;;37.15;13.63;;;0.30;99.90;;;;;;5007455;28;20131;-67
2023/03/12 08:12:08;;;;;;;45.03;18.58;;;0.30;99.90;;;;;;5019390;28;20044;-69
2023/03/12 08:14:35;;;;;;;40.88;16.67;;;0.70;99.90;;;;;;5004970;28;20132;-66
2023/03/12 08:17:00;;;;;;;36.20;17.48;;;0.70;99.90;;;;;;5016383;28;20068;-69
2023/03/12 08:19:27;;;;;;;40.28;18.27;;;0.90;99.90;;;;;;5009683;28;20065;-69
2023/03/12 08:21:53;;;;;;;33.20;15.93;;;0.80;99.90;;;;;;5007185;28;20064;-69
2023/03/12 08:24:20;;;;;;;37.80;15.85;;;0.90;99.90;;;;;;5014486;28;20025;-69
2023/03/12 08:26:46;;;;;;;34.53;15.20;;;1.10;99.90;;;;;;5013512;28;20160;-67
2023/03/12 08:29:12;;;;;;;42.03;17.88;;;1.10;99.90;;;;;;5012500;28;20113;-68
2023/03/12 08:31:37;;;;;;;54.42;25.77;;;0.90;99.90;;;;;;5010546;28;20061;-67
2023/03/12 08:34:03;;;;;;;39.13;16.73;;;0.90;99.90;;;;;;5007730;28;20052;-69
2023/03/12 08:36:29;;;;;;;30.08;12.90;;;1.00;99.90;;;;;;5012819;28;20025;-69
2023/03/12 08:38:54;;;;;;;44.78;17.10;;;1.20;99.90;;;;;;5008366;28;20169;-69
2023/03/12 08:41:20;;;;;;;26.70;12.93;;;1.20;99.90;;;;;;5008048;28;20069;-69
2023/03/12 08:43:46;;;;;;;21.20;10.55;;;1.50;99.90;;;;;;5004536;28;20037;-68
2023/03/12 08:46:11;;;;;;;25.05;9.23;;;1.30;99.90;;;;;;5002745;28;20025;-68
2023/03/12 08:48:37;;;;;;;19.70;9.20;;;1.30;99.90;;;;;;5008733;28;20053;-66
2023/03/12 08:51:04;;;;;;;21.75;9.63;;;1.60;99.90;;;;;;5011909;28;20052;-68
2023/03/12 08:53:33;;;;;;;21.20;8.82;;;1.80;99.90;;;;;;5011972;28;20041;-68
2023/03/12 08:55:58;;;;;;;20.92;8.57;;;2.10;99.90;;;;;;5008576;28;20041;-68
2023/03/12 08:58:24;;;;;;;23.25;8.82;;;2.10;99.90;;;;;;4999546;28;20083;-68
2023/03/12 09:00:51;;;;;;;18.23;8.60;;;2.10;99.90;;;;;;5005919;28;20107;-68
2023/03/12 09:03:17;;;;;;;17.55;8.15;;;2.50;99.90;;;;;;5008813;28;20034;-69
2023/03/12 09:05:43;;;;;;;16.88;7.95;;;2.30;99.90;;;;;;5009648;28;20129;-69
2023/03/12 09:08:10;;;;;;;22.17;7.10;;;2.80;99.90;;;;;;5000298;28;20029;-69
2023/03/12 09:10:36;;;;;;;16.33;7.25;;;2.80;99.90;;;;;;4988971;28;20058;-69
2023/03/12 09:13:02;;;;;;;18.30;7.60;;;2.90;99.90;;;;;;5021741;28;20038;-68
2023/03/12 09:15:28;;;;;;;17.13;8.00;;;3.20;99.90;;;;;;5007492;28;20160;-68
2023/03/12 09:17:54;;;;;;;18.27;8.07;;;3.20;99.90;;;;;;5010206;28;20536;-68
2023/03/12 09:20:21;;;;;;;19.38;8.55;;;2.90;99.90;;;;;;5007348;28;20045;-68
2023/03/12 09:22:50;;;;;;;22.38;8.02;;;3.00;99.90;;;;;;5007482;28;20030;-68
2023/03/12 09:25:16;;;;;;;14.25;6.80;;;3.30;99.90;;;;;;5014494;28;20046;-68
2023/03/12 09:27:44;;;;;;;19.00;7.68;;;3.40;99.90;;;;;;4995370;28;20069;-68
2023/03/12 09:30:16;;;;;;;15.13;7.35;;;3.40;99.90;;;;;;5011245;28;20083;-68
2023/03/12 09:32:44;;;;;;;18.58;7.70;;;3.60;99.90;;;;;;5006353;28;20033;-67
2023/03/12 09:35:11;;;;;;;18.75;7.35;;;3.80;99.90;;;;;;5013892;28;20120;-68
2023/03/12 09:37:37;;;;;;;18.40;7.70;;;3.70;99.90;;;;;;5004410;28;20036;-68
2023/03/12 09:40:06;;;;;;;17.75;9.00;;;3.60;99.90;;;;;;5015212;28;20037;-69
2023/03/12 09:42:52;;;;;;;19.25;8.75;;;3.90;99.90;;;;;;4988489;28;20038;-68
2023/03/12 09:45:23;;;;;;;21.25;8.85;;;3.90;99.90;;;;;;5005921;28;20038;-68
2023/03/12 09:47:51;;;;;;;21.92;8.80;;;3.80;99.90;;;;;;5010900;28;20080;-67
2023/03/12 09:50:39;;;;;;;18.08;8.07;;;3.90;99.90;;;;;;5015483;28;20478;-69
2023/03/12 09:53:29;;;;;;;20.00;7.65;;;3.80;99.90;;;;;;5001021;28;20033;-69
2023/03/12 09:55:57;;;;;;;17.58;8.07;;;4.00;99.90;;;;;;5006547;28;20042;-69
2023/03/12 09:58:29;;;;;;;19.73;8.85;;;4.10;99.90;;;;;;5006241;28;20378;-68
2023/03/12 10:01:15;;;;;;;17.27;8.15;;;4.30;99.90;;;;;;5003540;28;20041;-67
2023/03/12 10:04:03;;;;;;;18.27;8.88;;;4.10;99.90;;;;;;5008519;28;20041;-67
2023/03/12 10:06:46;;;;;;;18.73;8.90;;;4.10;99.90;;;;;;5013209;28;20529;-69
2023/03/12 10:09:19;;;;;;;20.25;9.50;;;4.10;99.90;;;;;;5001909;28;20033;-70
2023/03/12 10:12:00;;;;;;;17.80;9.57;;;4.40;99.90;;;;;;5015470;28;20025;-68
2023/03/12 10:14:34;;;;;;;21.85;10.05;;;4.30;99.90;;;;;;5013368;28;20417;-70
2023/03/12 10:17:28;;;;;;;23.45;10.20;;;4.50;99.90;;;;;;5025123;28;20025;-69
2023/03/12 10:20:14;;;;;;;24.02;10.63;;;4.30;99.90;;;;;;5010738;28;20036;-69
2023/03/12 10:22:55;;;;;;;27.95;10.27;;;4.30;99.90;;;;;;5011292;28;20037;-70
2023/03/12 10:25:44;;;;;;;31.58;11.48;;;4.50;99.90;;;;;;5017718;28;20128;-69
2023/03/12 10:28:17;;;;;;;24.88;9.88;;;4.70;99.90;;;;;;5002709;28;20030;-70
2023/03/12 10:30:52;;;;;;;27.40;10.85;;;4.50;99.90;;;;;;5011868;28;20026;-68
2023/03/12 10:33:18;;;;;;;25.60;10.40;;;4.70;99.90;;;;;;4987114;28;20386;-69
2023/03/12 10:35:45;;;;;;;26.02;10.73;;;4.80;99.90;;;;;;5011331;28;20091;-67
2023/03/12 10:38:21;;;;;;;23.83;10.23;;;4.90;99.90;;;;;;5011273;28;20080;-70
2023/03/12 10:40:46;;;;;;;25.13;10.27;;;4.80;99.90;;;;;;5011184;28;20109;-70
2023/03/12 10:43:12;;;;;;;24.70;10.18;;;5.10;99.90;;;;;;5009346;28;20133;-68
2023/03/12 10:45:54;;;;;;;27.17;11.07;;;5.10;99.90;;;;;;5007533;28;20066;-70
2023/03/12 10:48:27;;;;;;;24.83;10.70;;;5.50;99.90;;;;;;5011238;28;20109;-71
2023/03/12 10:51:07;;;;;;;25.15;10.18;;;5.30;99.90;;;;;;5007074;28;20041;-71
2023/03/12 10:53:46;;;;;;;24.90;9.95;;;5.60;99.90;;;;;;4999048;28;20069;-71
2023/03/12 10:56:15;;;;;;;23.58;9.93;;;5.70;99.90;;;;;;5011497;28;20038;-69
2023/03/12 10:58:49;;;;;;;22.80;9.50;;;5.60;99.90;;;;;;4991806;28;20026;-70
2023/03/12 11:01:22;;;;;;;23.58;9.52;;;5.30;99.90;;;;;;5015206;28;20367;-67
2023/03/12 11:03:50;;;;;;;24.23;9.75;;;5.70;99.90;;;;;;5008982;28;20030;-68
2023/03/12 11:06:34;;;;;;;22.50;9.57;;;5.60;99.90;;;;;;5009989;28;20033;-69
2023/03/12 11:09:06;;;;;;;23.30;10.48;;;5.50;99.90;;;;;;5003404;28;20045;-69
2023/03/12 11:11:34;;;;;;;25.58;10.63;;;5.90;99.90;;;;;;5010731;28;20029;-69
2023/03/12 11:14:07;;;;;;;23.65;10.00;;;5.70;99.90;;;;;;5009845;28;20038;-70
2023/03/12 11:16:33;;;;;;;20.60;9.30;;;6.00;99.90;;;;;;4993118;28;20026;-70
2023/03/12 11:19:04;;;;;;;25.77;9.77;;;5.80;99.90;;;;;;5009996;28;20057;-71
2023/03/12 11:21:39;;;;;;;23.33;10.13;;;6.10;99.90;;;;;;5001337;28;20044;-69
2023/03/12 11:24:14;;;;;;;24.83;10.32;;;6.20;99.90;;;;;;5006199;28;20046;-70
2023/03/12 11:27:06;;;;;;;20.42;9.18;;;6.00;99.90;;;;;;5011644;28;20030;-69
2023/03/12 11:29:42;;;;;;;22.00;10.57;;;6.20;99.90;;;;;;5003312;28;20034;-69
2023/03/12 11:32:32;;;;;;;23.40;11.05;;;6.50;99.90;;;;;;5009302;28;20186;-69
2023/03/12 11:34:58;;;;;;;19.85;9.57;;;6.50;99.90;;;;;;5009023;28;20379;-69
2023/03/12 11:37:30;;;;;;;23.00;10.40;;;6.30;99.90;;;;;;5010636;28;20628;-69
2023/03/12 11:40:18;;;;;;;19.83;9.45;;;6.30;99.90;;;;;;5010648;28;20046;-69
2023/03/12 11:43:09;;;;;;;24.77;10.27;;;6.30;99.90;;;;;;4984374;28;20117;-69
2023/03/12 11:45:37;;;;;;;;;;;6.30;99.90;;;;;;5029372;28;20058;-70
2023/03/12 11:48:14;;;;;;;18.63;9.15;;;6.50;99.90;;;;;;4994961;28;20000;-69
2023/03/12 11:51:06;;;;;;;19.95;10.10;;;6.60;99.90;;;;;;4988080;28;20053;-70
2023/03/12 11:53:49;;;;;;;23.23;8.98;;;6.50;99.90;;;;;;4992312;28;20562;-70
2023/03/12 11:56:28;;;;;;;20.17;9.68;;;6.50;99.90;;;;;;4977920;28;20077;-70
2023/03/12 11:59:28;;;;;;;19.83;9.82;;;6.60;99.90;;;;;;4992583;28;20030;-70
2023/03/12 12:02:21;;;;;;;22.70;10.57;;;6.50;99.90;;;;;;4983175;28;20042;-69
2023/03/12 12:05:13;;;;;;;21.58;9.43;;;6.80;99.90;;;;;;4979515;28;20172;-67
2023/03/12 12:07:50;;;;;;;19.73;9.32;;;6.90;99.90;;;;;;4984586;28;20041;-69
2023/03/12 12:11:12;;;;;;;20.20;9.40;;;7.10;99.90;;;;;;4990890;28;20026;-69
2023/03/12 12:13:50;;;;;;;17.15;8.90;;;7.00;99.90;;;;;;4920901;29;20481;-69
2023/03/12 12:16:34;;;;;;;20.33;10.52;;;7.30;99.90;;;;;;4928042;29;20070;-69
2023/03/12 12:18:59;;;;;;;20.33;10.00;;;7.30;99.90;;;;;;4922415;29;20044;-70
2023/03/12 12:21:40;;;;;;;21.63;10.10;;;7.10;99.90;;;;;;4922379;29;20115;-71
2023/03/12 12:24:17;;;;;;;18.55;9.10;;;7.10;99.90;;;;;;4910308;29;20146;-71
2023/03/12 12:26:56;;;;;;;20.92;9.82;;;7.40;99.90;;;;;;4925421;29;20043;-70
2023/03/12 12:29:48;;;;;;;20.83;9.80;;;7.50;99.90;;;;;;4924186;29;20042;-70
2023/03/12 12:32:27;;;;;;;20.65;9.57;;;7.30;99.90;;;;;;4920590;29;20750;-69
2023/03/12 12:35:12;;;;;;;17.40;8.65;;;7.50;99.90;;;;;;4915780;29;20087;-69
2023/03/12 12:37:58;;;;;;;13.88;7.40;;;7.70;99.90;;;;;;4925872;29;20047;-69
2023/03/12 12:40:31;;;;;;;14.50;7.60;;;7.80;99.90;;;;;;4919607;29;20040;-70
2023/03/12 12:43:09;;;;;;;13.52;6.95;;;8.20;99.90;;;;;;4927416;28;20143;-69
2023/03/12 12:45:38;;;;;;;13.40;6.35;;;8.20;99.90;;;;;;4995378;28;20045;-70
2023/03/12 12:48:29;;;;;;;12.95;6.13;;;8.10;99.90;;;;;;4998557;28;20031;-70